Time;durP1;ratioP1;P1;durP2;ratioP2;P2;SDS_P1;SDS_P2;PMS_P1;PMS_P2;Temp;Humidity;BMP_temperature;BMP_pressure;BME280_temperature;BME280_humidity;BME280_pressure;Samples;Min_cycle;Max_cycle;Signal;HPM_P1;HPM_P2
2023/12/20 00:00:03;;;;;;;47.53;26.20;;;;;;;4.86;72.22;100510.13;124719;1099;102051;-78
2023/12/20 00:02:36;;;;;;;48.98;26.55;;;;;;;4.84;72.45;100509.16;124852;1099;104230;-79
2023/12/20 00:05:09;;;;;;;;;;;;;;;4.82;73.06;100505.58;124792;1099;102154;-78
2023/12/20 00:07:40;;;;;;;47.10;24.53;;;;;;;4.81;72.99;100495.98;124738;1099;102039;-80
2023/12/20 00:10:12;;;;;;;50.23;25.60;;;;;;;4.77;73.09;100500.11;124824;1099;104086;-79
2023/12/20 00:12:48;;;;;;;49.87;26.23;;;;;;;4.76;73.43;100494.83;124744;1099;102042;-78
2023/12/20 00:15:19;;;;;;;48.60;27.37;;;;;;;4.76;73.07;100497.42;124771;1099;104197;-78
2023/12/20 00:17:50;;;;;;;46.70;26.43;;;;;;;4.76;72.92;100500.02;124766;1099;104349;-79
2023/12/20 00:20:23;;;;;;;48.27;26.80;;;;;;;4.76;72.97;100493.11;124791;1099;104316;-80
2023/12/20 00:22:55;;;;;;;47.63;26.47;;;;;;;4.75;73.58;100486.11;124795;1099;102574;-79
2023/12/20 00:25:27;;;;;;;46.33;25.93;;;;;;;4.74;73.91;100480.85;124703;1099;104185;-78
2023/12/20 00:27:58;;;;;;;45.73;26.80;;;;;;;4.69;73.92;100485.78;124695;1099;101829;-78
2023/12/20 00:30:29;;;;;;;48.30;26.97;;;;;;;4.66;74.40;100483.00;124664;1099;101943;-77
2023/12/20 00:33:00;;;;;;;47.73;26.03;;;;;;;4.66;73.85;100480.40;124626;1102;104232;-77
2023/12/20 00:35:31;;;;;;;45.03;25.63;;;;;;;4.65;73.66;100476.00;124655;1099;104401;-78
2023/12/20 00:38:02;;;;;;;48.77;25.37;;;;;;;4.64;74.31;100472.51;124677;1099;104248;-77
2023/12/20 00:40:34;;;;;;;48.50;26.37;;;;;;;4.64;73.63;100469.91;124656;1099;101944;-77
2023/12/20 00:43:05;;;;;;;49.15;26.95;;;;;;;4.64;73.80;100469.91;124603;1103;104302;-78
2023/12/20 00:45:36;;;;;;;45.30;24.90;;;;;;;4.63;73.97;100470.70;124627;1099;104249;-78
2023/12/20 00:48:08;;;;;;;46.27;26.97;;;;;;;4.65;73.94;100468.20;125320;1099;104242;-78
2023/12/20 00:50:39;;;;;;;47.80;26.27;;;;;;;4.65;74.12;100469.08;124728;1099;104182;-78
2023/12/20 00:53:10;;;;;;;48.03;26.23;;;;;;;4.67;73.90;100467.49;124702;1099;104185;-78
2023/12/20 00:55:42;;;;;;;48.97;25.50;;;;;;;4.68;73.97;100455.38;124757;1102;104156;-78
2023/12/20 00:58:15;;;;;;;45.53;26.03;;;;;;;4.66;74.23;100444.01;124731;1099;104210;-78
2023/12/20 01:00:46;;;;;;;47.87;26.80;;;;;;;4.64;74.25;100443.92;124752;1099;104657;-78
2023/12/20 01:03:17;;;;;;;47.03;25.30;;;;;;;4.62;74.48;100440.31;124744;1099;102057;-79
2023/12/20 01:05:49;;;;;;;48.07;26.00;;;;;;;4.61;75.25;100438.55;124666;1099;101903;-78
2023/12/20 01:08:20;;;;;;;51.83;27.77;;;;;;;4.61;75.08;100432.42;124748;1099;104214;-78
2023/12/20 01:10:51;;;;;;;46.67;25.07;;;;;;;4.60;75.37;100431.54;124669;1099;104278;-78
2023/12/20 01:13:22;;;;;;;48.27;25.53;;;;;;;4.61;75.06;100437.63;124845;1099;101813;-78
2023/12/20 01:15:53;;;;;;;48.23;26.80;;;;;;;4.59;74.97;100436.65;124680;1101;104121;-78
2023/12/20 01:18:24;;;;;;;46.43;26.20;;;;;;;4.55;75.16;100432.98;124675;1101;104277;-79
2023/12/20 01:20:55;;;;;;;49.53;27.40;;;;;;;4.55;74.76;100427.78;124772;1102;104166;-78
2023/12/20 01:23:26;;;;;;;51.07;26.57;;;;;;;4.55;75.29;100424.27;124753;1102;104246;-78
2023/12/20 01:25:59;;;;;;;48.53;26.27;;;;;;;4.55;74.79;100434.66;124834;1099;104173;-78
2023/12/20 01:28:30;;;;;;;48.70;27.25;;;;;;;4.51;75.18;100425.80;124750;1099;104166;-78
2023/12/20 01:31:01;;;;;;;47.40;26.40;;;;;;;4.47;74.78;100421.22;124755;1099;101906;-78
2023/12/20 01:33:32;;;;;;;47.27;27.20;;;;;;;4.43;74.82;100422.75;124825;1099;104278;-79
2023/12/20 01:36:04;;;;;;;49.57;27.83;;;;;;;4.42;74.96;100426.14;124905;1099;101835;-78
2023/12/20 01:38:35;;;;;;;47.80;25.07;;;;;;;4.40;75.11;100416.48;124772;1102;104210;-78
2023/12/20 01:41:06;;;;;;;47.53;25.83;;;;;;;4.35;75.09;100418.81;124881;1101;104208;-78
2023/12/20 01:43:37;;;;;;;49.30;25.97;;;;;;;4.35;75.59;100412.70;124731;1102;104176;-77
2023/12/20 01:46:08;;;;;;;44.37;25.37;;;;;;;4.36;75.67;100407.59;124761;1099;104278;-78
2023/12/20 01:48:40;;;;;;;45.87;25.80;;;;;;;4.35;75.36;100407.50;124707;1099;104357;-77
2023/12/20 01:51:11;;;;;;;48.17;27.13;;;;;;;4.35;75.71;100395.44;124733;1099;102154;-78
2023/12/20 01:53:44;;;;;;;48.90;26.03;;;;;;;4.34;75.76;100388.44;124870;1098;101984;-77
2023/12/20 01:56:16;;;;;;;48.43;26.97;;;;;;;4.34;75.42;100397.94;124830;1099;102238;-78
2023/12/20 01:58:51;;;;;;;46.47;26.50;;;;;;;4.35;75.08;100391.91;124857;1099;104176;-78
2023/12/20 02:01:22;;;;;;;50.53;27.27;;;;;;;4.35;75.36;100384.12;125314;1099;102380;-78
2023/12/20 02:03:54;;;;;;;45.47;25.90;;;;;;;4.33;75.44;100373.64;124784;1102;102257;-77
2023/12/20 02:06:30;;;;;;;49.03;27.07;;;;;;;4.29;75.77;100385.56;124802;1102;104172;-78
2023/12/20 02:09:01;;;;;;;49.13;26.67;;;;;;;4.29;75.59;100384.68;124913;1102;101877;-78
2023/12/20 02:11:35;;;;;;;49.40;26.27;;;;;;;4.28;75.75;100380.28;124877;1100;102231;-78
2023/12/20 02:14:06;;;;;;;46.10;25.93;;;;;;;4.26;75.64;100379.30;124831;1102;104328;-78
2023/12/20 02:16:37;;;;;;;46.83;26.17;;;;;;;4.25;76.28;100378.38;124839;1099;104259;-78
2023/12/20 02:19:15;;;;;;;50.90;25.97;;;;;;;4.23;76.48;100374.81;124868;1099;102280;-77
2023/12/20 02:21:49;;;;;;;47.30;26.00;;;;;;;4.20;76.10;100361.64;124847;1099;104245;-78
2023/12/20 02:24:18;;;;;;;;;;;;;;;4.19;75.97;100357.28;124866;1099;104214;-77
2023/12/20 02:26:50;;;;;;;51.67;27.00;;;;;;;4.16;76.30;100350.98;125310;1099;104341;-78
2023/12/20 02:29:21;;;;;;;50.67;26.50;;;;;;;4.14;75.92;100343.10;124843;1099;104166;-78
2023/12/20 02:31:52;;;;;;;48.70;26.60;;;;;;;4.11;76.52;100345.52;125391;1099;104191;-78
2023/12/20 02:34:23;;;;;;;52.73;27.17;;;;;;;4.07;75.99;100340.97;124797;1099;104217;-78
2023/12/20 02:36:54;;;;;;;50.57;27.87;;;;;;;4.05;76.08;100339.96;124843;1099;118714;-78
2023/12/20 02:39:25;;;;;;;53.00;28.17;;;;;;;4.02;75.96;100332.91;124883;1099;104214;-78
2023/12/20 02:41:56;;;;;;;50.97;28.23;;;;;;;4.00;76.48;100331.02;124977;1099;101955;-78
2023/12/20 02:44:27;;;;;;;50.90;28.17;;;;;;;3.99;76.00;100326.61;124849;1099;104179;-78
2023/12/20 02:47:01;;;;;;;49.17;26.80;;;;;;;3.98;76.35;100322.25;125431;1099;104204;-78
2023/12/20 02:49:34;;;;;;;53.20;27.33;;;;;;;3.94;76.02;100322.06;124886;1099;102414;-78
2023/12/20 02:52:06;;;;;;;49.23;27.93;;;;;;;3.93;76.92;100320.27;124825;1102;104207;-78
2023/12/20 02:54:37;;;;;;;52.33;28.53;;;;;;;3.92;76.57;100326.25;125453;1099;104086;-78
2023/12/20 02:57:09;;;;;;;53.17;27.87;;;;;;;3.89;75.99;100313.09;124896;1099;105451;-79
2023/12/20 02:59:40;;;;;;;51.43;28.27;;;;;;;3.87;76.33;100308.63;124862;1102;102057;-79
2023/12/20 03:02:11;;;;;;;51.20;27.10;;;;;;;3.83;76.53;100312.72;124789;1102;104296;-78
2023/12/20 03:04:42;;;;;;;52.80;26.65;;;;;;;3.80;76.59;100309.95;124899;1099;101804;-78
2023/12/20 03:07:13;;;;;;;51.67;27.13;;;;;;;3.79;76.18;100315.96;124870;1099;104238;-78
2023/12/20 03:09:46;;;;;;;48.70;27.07;;;;;;;3.78;77.08;100311.56;124781;1099;104217;-78
2023/12/20 03:12:20;;;;;;;54.00;27.40;;;;;;;3.77;76.81;100312.36;124897;1099;104252;-78
2023/12/20 03:14:50;;;;;;;;;;;;;;;3.71;76.95;100311.98;124821;1099;104178;-78
2023/12/20 03:17:21;;;;;;;46.57;25.87;;;;;;;3.69;76.21;100311.89;124783;1099;102073;-78
2023/12/20 03:19:52;;;;;;;53.67;28.57;;;;;;;3.68;76.41;100304.05;124859;1099;102032;-79
2023/12/20 03:22:23;;;;;;;50.00;27.17;;;;;;;3.67;77.25;100303.13;124793;1099;104179;-79
2023/12/20 03:24:55;;;;;;;53.67;27.47;;;;;;;3.66;76.73;100305.64;124787;1099;102026;-79
2023/12/20 03:27:26;;;;;;;52.47;27.87;;;;;;;3.64;76.64;100295.16;124903;1099;104411;-79
2023/12/20 03:29:57;;;;;;;53.87;27.77;;;;;;;3.61;76.95;100294.98;125411;1099;101866;-78
2023/12/20 03:32:28;;;;;;;54.40;28.13;;;;;;;3.59;76.14;100294.89;125289;1099;101907;-78
2023/12/20 03:34:59;;;;;;;50.40;27.27;;;;;;;3.57;76.71;100283.53;125233;1099;104262;-79
2023/12/20 03:37:30;;;;;;;49.40;26.27;;;;;;;3.57;76.87;100282.65;125059;1099;101831;-79
2023/12/20 03:40:01;;;;;;;54.57;28.60;;;;;;;3.56;77.21;100281.73;124920;1099;103176;-78
2023/12/20 03:42:33;;;;;;;50.43;27.00;;;;;;;3.57;77.10;100274.86;124883;1099;102403;-79
2023/12/20 03:45:06;;;;;;;51.90;27.90;;;;;;;3.56;77.45;100276.54;124789;1099;104176;-79
2023/12/20 03:47:37;;;;;;;49.40;26.93;;;;;;;3.54;77.36;100279.86;125247;1099;101874;-78
2023/12/20 03:50:09;;;;;;;53.23;27.80;;;;;;;3.52;77.19;100276.27;125454;1099;102348;-79
2023/12/20 03:52:40;;;;;;;51.13;26.33;;;;;;;3.54;77.84;100267.78;124891;1099;104172;-78
2023/12/20 03:55:12;;;;;;;50.83;27.93;;;;;;;3.52;77.12;100265.88;124864;1099;104242;-79
2023/12/20 03:57:43;;;;;;;49.77;27.20;;;;;;;3.49;77.06;100268.30;124822;1099;104100;-78
2023/12/20 04:00:15;;;;;;;51.77;27.27;;;;;;;3.43;76.71;100258.47;124759;1102;102021;-79
2023/12/20 04:02:46;;;;;;;51.20;27.47;;;;;;;3.44;77.33;100254.16;124853;1099;104274;-78
2023/12/20 04:05:17;;;;;;;51.07;26.07;;;;;;;3.41;77.22;100253.19;124763;1098;104313;-79
2023/12/20 04:07:50;;;;;;;46.07;27.30;;;;;;;3.41;77.17;100244.48;124697;1099;101900;-79
2023/12/20 04:10:21;;;;;;;52.00;26.13;;;;;;;3.41;77.63;100257.45;124846;1100;104069;-79
2023/12/20 04:12:52;;;;;;;57.25;26.60;;;;;;;3.40;77.12;100255.69;124877;1099;102018;-79
2023/12/20 04:15:23;;;;;;;55.97;26.77;;;;;;;3.38;77.56;100255.59;124806;1102;104175;-79
2023/12/20 04:17:57;;;;;;;55.60;26.97;;;;;;;3.34;78.06;100263.09;124839;1099;101991;-79
2023/12/20 04:20:28;;;;;;;47.75;25.55;;;;;;;3.30;77.39;100256.80;124763;1099;104221;-78
2023/12/20 04:22:59;;;;;;;52.57;27.63;;;;;;;3.29;77.28;100252.44;124807;1099;102031;-79
2023/12/20 04:25:30;;;;;;;48.40;26.47;;;;;;;3.24;77.53;100256.42;124847;1099;104192;-79
2023/12/20 04:28:01;;;;;;;52.23;28.10;;;;;;;3.16;77.53;100261.14;124836;1099;102976;-78
2023/12/20 04:30:32;;;;;;;52.70;28.80;;;;;;;3.15;77.71;100264.56;125165;1099;102448;-79
2023/12/20 04:33:03;;;;;;;52.33;27.57;;;;;;;3.15;77.53;100249.00;124773;1099;104099;-79
2023/12/20 04:35:34;;;;;;;57.03;27.80;;;;;;;3.15;77.82;100250.71;124832;1099;102108;-79
2023/12/20 04:38:06;;;;;;;53.37;27.67;;;;;;;3.11;77.37;100240.94;124813;1099;103302;-78
2023/12/20 04:40:37;;;;;;;53.20;28.95;;;;;;;3.11;77.92;100239.23;124727;1099;104182;-79
2023/12/20 04:43:09;;;;;;;52.23;28.87;;;;;;;3.12;78.18;100246.22;124831;1099;104323;-79
2023/12/20 04:45:41;;;;;;;54.40;28.87;;;;;;;3.14;78.21;100243.72;124717;1099;104332;-78
2023/12/20 04:48:13;;;;;;;58.43;29.37;;;;;;;3.14;77.37;100243.72;124861;1099;104217;-78
2023/12/20 04:50:44;;;;;;;62.97;29.87;;;;;;;3.13;78.22;100253.20;124783;1099;101935;-78
2023/12/20 04:53:15;;;;;;;56.83;28.77;;;;;;;3.13;78.38;100248.02;124812;1099;102650;-79
2023/12/20 04:55:46;;;;;;;51.90;28.97;;;;;;;3.08;78.40;100241.64;124837;1099;104197;-80
2023/12/20 04:58:18;;;;;;;55.13;29.77;;;;;;;3.04;78.14;100237.09;124766;1099;104503;-80
2023/12/20 05:00:49;;;;;;;57.73;30.50;;;;;;;3.04;78.37;100237.09;124977;1099;104172;-80
2023/12/20 05:03:20;;;;;;;55.00;29.40;;;;;;;3.03;78.50;100243.06;124879;1099;101849;-80
2023/12/20 05:05:51;;;;;;;52.63;30.07;;;;;;;3.03;78.42;100240.47;124901;1099;101824;-79
2023/12/20 05:08:22;;;;;;;53.87;28.63;;;;;;;3.02;78.19;100228.30;125115;1099;102233;-80
2023/12/20 05:10:54;;;;;;;55.33;28.37;;;;;;;3.02;78.58;100229.22;125382;1099;101821;-80
2023/12/20 05:13:26;;;;;;;54.10;29.13;;;;;;;3.03;78.08;100224.91;124946;1099;104265;-79
2023/12/20 05:15:57;;;;;;;53.87;29.53;;;;;;;3.03;78.68;100223.21;124982;1099;104264;-80
2023/12/20 05:18:28;;;;;;;55.20;29.40;;;;;;;3.04;78.64;100230.20;125124;1099;101908;-80
2023/12/20 05:20:59;;;;;;;51.93;30.67;;;;;;;3.05;78.73;100232.00;124905;1099;101956;-80
2023/12/20 05:23:30;;;;;;;57.03;30.33;;;;;;;3.06;78.75;100231.17;124905;1099;101830;-81
2023/12/20 05:26:03;;;;;;;57.97;30.63;;;;;;;3.07;78.14;100229.50;125030;1099;101836;-80
2023/12/20 05:28:35;;;;;;;57.33;30.20;;;;;;;3.09;78.34;100222.70;125029;1099;101912;-80
2023/12/20 05:31:06;;;;;;;52.33;29.03;;;;;;;3.12;78.54;100227.19;124985;1099;102186;-81
2023/12/20 05:33:37;;;;;;;51.70;28.55;;;;;;;3.13;79.06;100221.18;124950;1099;102027;-80
2023/12/20 05:36:11;;;;;;;51.67;28.63;;;;;;;3.14;78.67;100217.80;125093;1099;102064;-79
2023/12/20 05:38:43;;;;;;;54.87;29.43;;;;;;;3.15;79.26;100225.67;124986;1099;104176;-80
2023/12/20 05:41:14;;;;;;;54.50;29.93;;;;;;;3.16;79.34;100229.14;124907;1099;104313;-80
2023/12/20 05:43:48;;;;;;;55.10;29.00;;;;;;;3.16;78.50;100231.73;124949;1099;102477;-82
2023/12/20 05:46:19;;;;;;;52.93;29.27;;;;;;;3.13;78.77;100224.69;124953;1099;104162;-78
2023/12/20 05:48:51;;;;;;;52.03;28.97;;;;;;;3.17;78.69;100226.64;125234;1099;104307;-80
2023/12/20 05:51:22;;;;;;;56.37;29.73;;;;;;;3.20;78.56;100234.61;124880;1099;102032;-78
2023/12/20 05:53:53;;;;;;;58.70;31.63;;;;;;;3.24;78.79;100225.31;124907;1099;104214;-79
2023/12/20 05:56:25;;;;;;;53.03;29.10;;;;;;;3.27;79.08;100222.02;124873;1099;104168;-80
2023/12/20 05:58:56;;;;;;;55.85;29.05;;;;;;;3.31;78.85;100224.00;125998;1098;102016;-79
2023/12/20 06:01:27;;;;;;;54.27;30.40;;;;;;;3.32;79.52;100223.17;124727;1098;104169;-81
2023/12/20 06:03:58;;;;;;;57.75;30.20;;;;;;;3.34;78.85;100219.00;124959;1099;104217;-82
2023/12/20 06:06:31;;;;;;;56.30;31.33;;;;;;;3.34;78.58;100212.11;125026;1099;103593;-82
2023/12/20 06:09:04;;;;;;;58.27;32.17;;;;;;;3.37;79.17;100219.19;124973;1100;104623;-81
2023/12/20 06:11:36;;;;;;;56.20;31.45;;;;;;;3.34;79.34;100219.00;125060;1099;102025;-79
2023/12/20 06:14:07;;;;;;;60.60;33.77;;;;;;;3.29;78.91;100218.73;125043;1102;104111;-79
2023/12/20 06:16:42;;;;;;;64.87;34.73;;;;;;;3.24;79.51;100221.04;125063;1102;104267;-80
2023/12/20 06:19:14;;;;;;;66.77;35.00;;;;;;;3.22;78.92;100225.22;125027;1099;103690;-80
2023/12/20 06:21:50;;;;;;;59.80;32.93;;;;;;;3.21;79.30;100226.04;125790;1099;102035;-80
2023/12/20 06:24:27;;;;;;;60.27;33.33;;;;;;;3.27;80.04;100222.91;125757;1099;101916;-78
2023/12/20 06:26:57;;;;;;;;;;;;;;;3.32;79.18;100230.95;124760;1098;102035;-81
2023/12/20 06:29:29;;;;;;;60.60;32.67;;;;;;;3.37;79.73;100211.41;125111;1099;104227;-77
2023/12/20 06:32:00;;;;;;;63.97;33.73;;;;;;;3.43;79.96;100224.74;125040;1102;104175;-80
2023/12/20 06:34:31;;;;;;;59.30;32.60;;;;;;;3.51;79.62;100227.80;125046;1102;102840;-76
2023/12/20 06:37:02;;;;;;;58.00;32.70;;;;;;;3.64;79.49;100226.81;125035;1099;104205;-79
2023/12/20 06:39:34;;;;;;;57.53;29.90;;;;;;;3.71;79.47;100228.94;125016;1099;103812;-77
2023/12/20 06:42:06;;;;;;;55.27;30.87;;;;;;;3.78;79.61;100238.89;125185;1099;101878;-77
2023/12/20 06:44:38;;;;;;;56.57;30.70;;;;;;;3.82;79.90;100235.68;125105;1099;102281;-78
2023/12/20 06:47:10;;;;;;;56.43;30.53;;;;;;;3.84;79.18;100231.46;125137;1099;104153;-79
2023/12/20 06:49:41;;;;;;;53.47;29.10;;;;;;;3.89;78.87;100227.42;124974;1098;104176;-79
2023/12/20 06:52:12;;;;;;;55.60;30.67;;;;;;;3.96;79.89;100231.30;124477;1099;107601;-78
2023/12/20 06:54:44;;;;;;;58.30;30.80;;;;;;;4.01;79.29;100235.04;125696;1099;104195;-78
2023/12/20 06:57:15;;;;;;;56.70;31.70;;;;;;;4.05;79.77;100230.91;124848;1099;104169;-79
2023/12/20 06:59:48;;;;;;;57.60;29.97;;;;;;;4.17;79.50;100222.94;125552;1098;102298;-79
2023/12/20 07:02:20;;;;;;;58.67;31.87;;;;;;;4.25;79.11;100224.25;125288;1099;118631;-81
2023/12/20 07:04:52;;;;;;;54.50;29.57;;;;;;;4.31;79.51;100228.08;124721;1099;104468;-76
2023/12/20 07:07:24;;;;;;;54.07;30.60;;;;;;;4.39;79.84;100223.31;124622;1099;104287;-78
2023/12/20 07:09:55;;;;;;;56.43;29.77;;;;;;;4.49;79.47;100229.94;124757;1099;103340;-77
2023/12/20 07:12:28;;;;;;;52.40;30.27;;;;;;;4.56;79.31;100225.97;124757;1102;101822;-80
2023/12/20 07:14:59;;;;;;;55.60;29.90;;;;;;;4.62;79.35;100211.59;124950;1099;102036;-80
2023/12/20 07:17:30;;;;;;;59.47;31.43;;;;;;;4.72;80.12;100207.82;124607;1099;104217;-75
2023/12/20 07:20:03;;;;;;;52.00;29.03;;;;;;;4.78;79.23;100202.04;125858;1099;104235;-79
2023/12/20 07:22:36;;;;;;;52.95;28.85;;;;;;;4.85;79.73;100197.25;124731;1099;104191;-76
2023/12/20 07:25:09;;;;;;;57.53;30.20;;;;;;;4.91;79.67;100188.91;124833;1098;104227;-77
2023/12/20 07:27:59;;;;;;;58.50;31.03;;;;;;;5.00;79.59;100189.39;124905;1099;104759;-77
2023/12/20 07:30:38;;;;;;;63.87;32.40;;;;;;;5.11;79.53;100189.96;125005;1099;103354;-77
2023/12/20 07:33:12;;;;;;;63.80;32.80;;;;;;;5.19;79.71;100199.05;125540;1099;103257;-76
2023/12/20 07:35:46;;;;;;;60.50;31.53;;;;;;;5.26;79.56;100192.45;125152;1099;104714;-76
2023/12/20 07:38:18;;;;;;;55.80;31.93;;;;;;;5.29;79.19;100195.21;124830;1099;102213;-77
2023/12/20 07:40:52;;;;;;;57.33;31.00;;;;;;;5.34;78.85;100195.45;124564;1099;104217;-76
2023/12/20 07:43:26;;;;;;;53.30;30.50;;;;;;;5.41;79.33;100187.16;125179;1099;102261;-79
2023/12/20 07:46:04;;;;;;;58.63;32.70;;;;;;;5.51;78.85;100194.59;126353;1098;101639;-76
2023/12/20 07:48:54;;;;;;;55.70;31.63;;;;;;;5.65;79.07;100197.91;124288;1099;104201;-74
2023/12/20 07:51:30;;;;;;;52.43;30.97;;;;;;;5.75;79.61;100189.75;124330;1101;104245;-76
2023/12/20 07:54:01;;;;;;;52.63;30.70;;;;;;;5.86;79.58;100185.08;124357;1098;104166;-76
2023/12/20 07:56:32;;;;;;;54.40;31.70;;;;;;;5.95;79.42;100189.83;124437;1101;104245;-75
2023/12/20 07:59:04;;;;;;;53.27;30.93;;;;;;;6.02;79.03;100180.66;124296;1102;104233;-74
2023/12/20 08:01:35;;;;;;;60.67;33.50;;;;;;;6.11;78.83;100189.80;124498;1102;104179;-76
2023/12/20 08:04:08;;;;;;;59.87;32.20;;;;;;;6.17;78.63;100185.70;126101;1098;104076;-82
2023/12/20 08:06:39;;;;;;;55.30;31.40;;;;;;;6.26;79.00;100174.03;125858;1099;101940;-81
2023/12/20 08:09:11;;;;;;;61.83;32.17;;;;;;;6.39;79.06;100169.37;125757;1099;104303;-84
2023/12/20 08:11:45;;;;;;;54.27;31.37;;;;;;;6.50;79.06;100168.19;126637;1098;102366;-79
2023/12/20 08:14:19;;;;;;;56.10;31.67;;;;;;;6.61;78.94;100171.30;127354;1098;101405;-81
2023/12/20 08:16:53;;;;;;;61.30;34.77;;;;;;;6.66;78.80;100167.17;126705;1099;101801;-78
2023/12/20 08:19:27;;;;;;;56.70;32.73;;;;;;;6.75;78.83;100171.93;126031;1098;101918;-79
2023/12/20 08:22:02;;;;;;;58.80;34.33;;;;;;;6.83;78.69;100174.05;125832;1098;101992;-79
2023/12/20 08:24:36;;;;;;;61.13;34.37;;;;;;;6.93;78.70;100170.13;127044;1098;101725;-78
2023/12/20 08:27:10;;;;;;;58.50;33.93;;;;;;;7.02;78.43;100161.83;126553;1098;101881;-82
2023/12/20 08:29:50;;;;;;;63.20;33.90;;;;;;;7.12;78.39;100160.52;126221;1099;101919;-80
2023/12/20 08:32:25;;;;;;;56.40;33.17;;;;;;;7.22;78.38;100156.61;124742;1102;104258;-83
2023/12/20 08:34:59;;;;;;;55.87;30.27;;;;;;;7.30;78.28;100152.61;125798;1099;102322;-81
2023/12/20 08:37:32;;;;;;;47.73;27.42;;;;;;;7.37;78.35;100142.50;124714;1099;104175;-79
2023/12/20 08:40:04;;;;;;;42.77;25.20;;;;;;;7.49;78.43;100138.61;124899;1099;102096;-78
2023/12/20 08:42:35;;;;;;;44.77;24.67;;;;;;;7.56;78.17;100131.11;124864;1099;101917;-79
2023/12/20 08:45:12;;;;;;;41.83;24.65;;;;;;;7.66;77.81;100123.66;125985;1099;104201;-78
2023/12/20 08:47:44;;;;;;;50.30;25.47;;;;;;;7.77;78.14;100122.36;126440;1098;101884;-78
2023/12/20 08:50:16;;;;;;;44.53;24.20;;;;;;;7.84;77.94;100111.35;127139;1098;101833;-79
2023/12/20 08:52:51;;;;;;;45.60;25.43;;;;;;;7.94;78.23;100098.66;125038;1099;101828;-75
2023/12/20 08:55:22;;;;;;;42.00;25.10;;;;;;;8.03;77.93;100097.30;124535;1099;104191;-77
2023/12/20 08:57:57;;;;;;;47.73;25.80;;;;;;;8.13;77.61;100095.04;124791;1099;104245;-76
2023/12/20 09:00:29;;;;;;;54.85;29.75;;;;;;;8.22;77.93;100092.78;124896;1099;104276;-77
2023/12/20 09:03:02;;;;;;;53.20;30.03;;;;;;;8.28;77.43;100096.52;124692;1099;105500;-76
2023/12/20 09:05:33;;;;;;;;;;;;;;;8.33;76.91;100083.63;124692;1099;104248;-76
2023/12/20 09:08:07;;;;;;;53.10;30.20;;;;;;;8.41;77.29;100086.53;125032;1099;104178;-76
2023/12/20 09:10:39;;;;;;;52.35;30.95;;;;;;;8.42;76.54;100077.86;125069;1099;104173;-75
2023/12/20 09:13:11;;;;;;;56.03;31.00;;;;;;;8.48;76.99;100078.13;126492;1098;104175;-77
2023/12/20 09:15:47;;;;;;;49.43;27.63;;;;;;;8.51;77.12;100073.02;125947;1099;101961;-74
2023/12/20 09:18:23;;;;;;;52.53;27.13;;;;;;;8.56;76.75;100060.11;124499;1099;102052;-73
2023/12/20 09:20:58;;;;;;;46.30;26.07;;;;;;;8.66;76.48;100061.33;124541;1099;101993;-70
2023/12/20 09:23:31;;;;;;;46.48;23.60;;;;;;;8.75;76.99;100061.66;124212;1099;104238;-71
2023/12/20 09:26:02;;;;;;;44.60;23.83;;;;;;;8.81;76.14;100052.30;124211;1099;102507;-70
2023/12/20 09:28:36;;;;;;;38.33;21.97;;;;;;;8.90;76.18;100048.25;124383;1099;104280;-71
2023/12/20 09:31:10;;;;;;;37.63;22.07;;;;;;;8.95;76.24;100044.05;124282;1099;104243;-72
2023/12/20 09:33:46;;;;;;;38.50;21.80;;;;;;;8.99;76.00;100033.74;125150;1099;104204;-72
2023/12/20 09:36:25;;;;;;;38.85;22.00;;;;;;;9.07;75.71;100039.24;124325;1099;104262;-73
2023/12/20 09:38:57;;;;;;;53.20;28.83;;;;;;;9.10;75.17;100033.20;124334;1099;104176;-75
2023/12/20 09:41:33;;;;;;;49.37;30.80;;;;;;;9.08;75.22;100029.66;124773;1100;101906;-77
2023/12/20 09:44:05;;;;;;;43.80;25.70;;;;;;;9.11;75.13;100029.77;124674;1099;101833;-76
2023/12/20 09:46:40;;;;;;;40.87;23.73;;;;;;;9.16;75.28;100023.86;124502;1102;104175;-74
2023/12/20 09:49:20;;;;;;;44.00;24.03;;;;;;;9.23;74.91;100026.68;126193;1098;104172;-76
2023/12/20 09:51:54;;;;;;;39.87;23.33;;;;;;;9.29;74.79;100021.65;126089;1098;102218;-77
2023/12/20 09:54:30;;;;;;;57.33;26.80;;;;;;;9.37;74.76;100008.81;125439;1099;102512;-78
2023/12/20 09:57:03;;;;;;;47.47;24.47;;;;;;;9.41;75.14;100003.72;126762;1098;101830;-77
2023/12/20 09:59:37;;;;;;;35.90;20.53;;;;;;;9.46;75.09;100003.88;125486;1099;102027;-78
2023/12/20 10:02:14;;;;;;;43.80;21.30;;;;;;;9.52;74.17;99996.17;126601;1098;104182;-77
2023/12/20 10:04:58;;;;;;;36.37;19.43;;;;;;;9.58;74.67;100001.61;126307;1098;101804;-77
2023/12/20 10:07:30;;;;;;;35.40;19.10;;;;;;;9.62;73.78;99990.41;124703;1099;101871;-76
2023/12/20 10:10:02;;;;;;;35.97;19.17;;;;;;;9.66;73.88;99992.28;124677;1099;104227;-76
2023/12/20 10:12:34;;;;;;;34.77;18.97;;;;;;;9.73;74.37;99982.88;124951;1099;104172;-78
2023/12/20 10:15:06;;;;;;;34.80;19.80;;;;;;;9.76;73.77;99969.87;124902;1099;101954;-77
2023/12/20 10:17:37;;;;;;;37.20;19.00;;;;;;;9.79;73.64;99967.34;125697;1098;102067;-77
2023/12/20 10:20:15;;;;;;;37.60;20.10;;;;;;;9.81;72.99;99959.53;125798;1098;101827;-76
2023/12/20 10:22:47;;;;;;;32.57;18.33;;;;;;;9.85;73.66;99957.05;126046;1099;101876;-76
2023/12/20 10:25:20;;;;;;;32.43;17.33;;;;;;;9.88;72.84;99953.64;125370;1099;101822;-77
2023/12/20 10:28:09;;;;;;;33.27;18.80;;;;;;;9.90;72.99;99950.20;125360;1102;103356;-76
2023/12/20 10:30:51;;;;;;;37.27;18.90;;;;;;;9.94;72.82;99943.34;125799;1099;101939;-76
2023/12/20 10:33:28;;;;;;;37.63;20.57;;;;;;;9.96;72.29;99938.14;124962;1102;104275;-76
2023/12/20 10:36:08;;;;;;;36.87;20.43;;;;;;;10.00;72.07;99933.03;125077;1099;102848;-75
2023/12/20 10:38:44;;;;;;;45.67;21.93;;;;;;;10.01;71.88;99923.43;124920;1099;104242;-78
2023/12/20 10:41:18;;;;;;;36.77;20.47;;;;;;;10.02;71.53;99915.61;125435;1102;102365;-74
2023/12/20 10:43:50;;;;;;;42.83;20.20;;;;;;;10.01;71.79;99908.58;124679;1099;104179;-72
2023/12/20 10:46:22;;;;;;;36.80;19.87;;;;;;;10.03;71.40;99893.77;125935;1099;104095;-74
2023/12/20 10:48:56;;;;;;;34.00;19.07;;;;;;;10.04;71.14;99890.31;125522;1099;104423;-76
2023/12/20 10:51:30;;;;;;;33.97;18.47;;;;;;;10.07;71.60;99885.16;124885;1099;104233;-78
2023/12/20 10:54:01;;;;;;;39.07;19.60;;;;;;;10.10;71.08;99884.38;125918;1098;102192;-78
2023/12/20 10:56:37;;;;;;;33.17;17.57;;;;;;;10.14;71.08;99877.47;126396;1098;105488;-75
2023/12/20 10:59:16;;;;;;;32.30;17.70;;;;;;;10.15;70.96;99871.39;127067;1098;101483;-75
2023/12/20 11:01:51;;;;;;;31.53;18.20;;;;;;;10.16;70.27;99870.52;125929;1098;102185;-77
2023/12/20 11:04:32;;;;;;;32.37;18.07;;;;;;;10.17;70.70;99861.82;126087;1099;101921;-81
2023/12/20 11:07:17;;;;;;;31.33;16.33;;;;;;;10.15;70.64;99858.28;125451;1102;102358;-78
2023/12/20 11:09:56;;;;;;;32.23;16.97;;;;;;;10.13;70.49;99850.38;124449;1099;103560;-78
2023/12/20 11:12:39;;;;;;;30.37;16.50;;;;;;;10.10;69.97;99857.25;124636;1099;103683;-78
2023/12/20 11:15:15;;;;;;;31.00;16.67;;;;;;;10.07;69.69;99852.83;125311;1099;104172;-79
2023/12/20 11:17:55;;;;;;;29.05;15.03;;;;;;;10.06;69.51;99844.05;126155;1099;104162;-79
2023/12/20 11:20:36;;;;;;;31.73;15.90;;;;;;;10.06;69.14;99844.05;126377;1099;104169;-79
2023/12/20 11:23:09;;;;;;;28.07;15.37;;;;;;;10.04;67.97;99837.89;126128;1098;101804;-80
2023/12/20 11:26:07;;;;;;;30.70;15.30;;;;;;;10.10;68.26;99828.41;125790;1099;102716;-80
2023/12/20 11:28:53;;;;;;;27.83;15.07;;;;;;;10.11;68.06;99825.83;126005;1099;104177;-76